Time,TemperatureF,DewpointF,PressureIn,WindDirection,WindDirectionDegrees,WindSpeedMPH,WindSpeedGustMPH,Humidity,HourlyPrecipIn,Conditions,Clouds,dailyrainin,SoftwareType,DateUTC
2013-08-12 00:00:00,69.4,64.7,30.03,NNW,345,4.0,8.0,85,0.00,,CLR,-99.99,VWS V12.06,2013-08-12 04:00:00,
2013-08-12 00:02:00,67.7,65.3,30.03,WNW,293,0.0,4.0,92,0.00,,CLR,-99.99,VWS V12.06,2013-08-12 04:02:00,
2013-08-12 00:30:00,69.6,64.6,30.04,WNW,302,6.0,8.0,84,0.00,,CLR,-99.99,VWS V12.06,2013-08-12 04:30:00,
2013-08-12 01:00:00,69.6,64.2,30.03,WNW,294,8.0,8.0,83,0.00,,CLR,-99.99,VWS V12.06,2013-08-12 05:00:00,
2013-08-12 01:02:00,68.0,65.0,30.03,WNW,288,0.0,7.0,90,0.00,,CLR,-99.99,VWS V12.06,2013-08-12 05:02:00,
2013-08-12 01:30:00,69.4,64.4,30.03,NW,304,5.0,11.0,84,0.00,,CLR,-99.99,VWS V12.06,2013-08-12 05:30:00,
2013-08-12 02:00:00,68.9,64.2,30.02,WNW,286,9.0,9.0,85,0.00,,CLR,-99.99,VWS V12.06,2013-08-12 06:00:00,
2013-08-12 02:30:00,69.4,64.0,30.02,SW,229,1.0,9.0,83,0.00,,CLR,-99.99,VWS V12.06,2013-08-12 06:30:00,
2013-08-12 03:00:00,69.4,64.0,30.02,NW,324,2.0,5.0,83,0.00,,CLR,-99.99,VWS V12.06,2013-08-12 07:00:00,
2013-08-12 03:30:00,68.9,63.9,30.01,West,273,5.0,5.0,84,0.00,,CLR,-99.99,VWS V12.06,2013-08-12 07:30:00,
2013-08-12 04:00:00,68.8,64.1,30.01,WNW,292,6.0,8.0,85,0.00,,BKN024,-99.99,VWS V12.06,2013-08-12 08:00:00,
2013-08-12 04:30:00,68.6,63.9,30.01,WNW,287,0.0,4.0,85,0.00,,BKN024,-99.99,VWS V12.06,2013-08-12 08:30:00,
2013-08-12 05:00:00,67.9,63.6,30.02,WNW,283,5.0,7.0,86,0.00,,SCT018,-99.99,VWS V12.06,2013-08-12 09:00:00,
2013-08-12 05:30:00,67.6,63.6,30.02,NW,323,1.0,8.0,87,0.00,,SCT018,-99.99,VWS V12.06,2013-08-12 09:30:00,
2013-08-12 06:00:00,67.2,63.2,30.02,NNW,345,2.0,3.0,87,0.00,,SCT021,-99.99,VWS V12.06,2013-08-12 10:00:00,
2013-08-12 06:30:00,67.1,63.1,30.03,West,259,3.0,5.0,87,0.00,,SCT021,-99.99,VWS V12.06,2013-08-12 10:30:00,
2013-08-12 07:00:00,67.6,63.3,30.04,WNW,302,0.0,5.0,86,0.00,,CLR,-99.99,VWS V12.06,2013-08-12 11:00:00,
2013-08-12 07:30:00,67.4,63.1,30.04,North,5,0.0,4.0,86,0.00,,CLR,-99.99,VWS V12.06,2013-08-12 11:30:00,
2013-08-12 08:00:00,68.2,64.2,30.03,North,5,0.0,0.0,87,0.00,,CLR,-99.99,VWS V12.06,2013-08-12 12:00:00,
2013-08-12 08:30:00,71.5,65.7,30.04,NW,314,0.0,0.0,82,0.00,,CLR,-99.99,VWS V12.06,2013-08-12 12:30:00,
2013-08-12 09:00:00,73.4,66.5,30.03,North,10,0.0,1.0,79,0.00,,SCT042,-99.99,VWS V12.06,2013-08-12 13:00:00,
2013-08-12 09:30:00,72.7,65.8,30.03,NNE,21,0.0,0.0,79,0.00,,SCT042,-99.99,VWS V12.06,2013-08-12 13:30:00,
2013-08-12 10:00:00,74.6,67.3,30.03,SSW,200,1.0,2.0,78,0.00,,OVC026,-99.99,VWS V12.06,2013-08-12 14:00:00,
2013-08-12 10:30:00,74.6,67.3,30.03,SSW,194,0.0,1.0,78,0.00,,OVC026,-99.99,VWS V12.06,2013-08-12 14:30:00,
2013-08-12 11:00:00,75.8,68.1,30.04,South,179,5.0,5.0,77,0.00,,OVC120,-99.99,VWS V12.06,2013-08-12 15:00:00,
2013-08-12 11:30:00,75.3,69.1,30.04,South,188,0.0,0.0,81,0.00,,OVC120,-99.99,VWS V12.06,2013-08-12 15:30:00,
2013-08-12 12:00:00,76.4,67.5,30.03,WNW,284,1.0,4.0,74,0.00,,BKN120,-99.99,VWS V12.06,2013-08-12 16:00:00,
2013-08-12 12:30:00,77.5,66.5,30.02,South,173,1.0,4.0,69,0.00,,BKN120,-99.99,VWS V12.06,2013-08-12 16:30:00,
2013-08-12 13:00:00,76.3,68.2,30.03,West,259,3.0,5.0,76,0.00,,SCT120,-99.99,VWS V12.06,2013-08-12 17:00:00,
2013-08-12 13:30:00,75.6,65.5,30.02,SW,233,4.0,8.0,71,0.00,,SCT120,-99.99,VWS V12.06,2013-08-12 17:30:00,
2013-08-12 14:00:00,79.3,67.8,30.01,SW,217,6.0,10.0,68,0.00,,BKN075,-99.99,VWS V12.06,2013-08-12 18:00:00,
2013-08-12 14:30:00,77.8,68.1,30.00,SSW,196,2.0,2.0,72,0.00,,BKN075,-99.99,VWS V12.06,2013-08-12 18:30:00,
2013-08-12 15:00:00,80.6,70.3,29.98,South,169,2.0,2.0,71,0.00,,BKN120,-99.99,VWS V12.06,2013-08-12 19:00:00,
2013-08-12 15:30:00,78.0,69.8,29.97,South,187,4.0,6.0,76,0.00,,BKN120,-99.99,VWS V12.06,2013-08-12 19:30:00,
2013-08-12 16:00:00,75.2,69.0,29.97,WSW,257,0.0,1.0,81,0.00,,SCT095,-99.99,VWS V12.06,2013-08-12 20:00:00,
2013-08-12 16:30:00,78.5,69.9,29.96,SW,233,2.0,4.0,75,0.00,,SCT095,-99.99,VWS V12.06,2013-08-12 20:30:00,
2013-08-12 17:00:00,77.5,70.5,29.96,South,174,0.0,1.0,79,0.00,,BKN036,-99.99,VWS V12.06,2013-08-12 21:00:00,
2013-08-12 17:30:00,76.3,69.3,29.95,SSE,161,1.0,2.0,79,0.00,,BKN036,-99.99,VWS V12.06,2013-08-12 21:30:00,
2013-08-12 18:00:00,74.9,69.7,29.95,WSW,242,0.0,0.0,84,0.00,,CLR,-99.99,VWS V12.06,2013-08-12 22:00:00,
2013-08-12 18:30:00,73.9,69.1,29.95,SSW,195,0.0,3.0,85,0.00,,CLR,-99.99,VWS V12.06,2013-08-12 22:30:00,
2013-08-12 19:00:00,67.5,64.5,29.94,South,171,3.0,6.0,90,0.30,,SCT080,-99.99,VWS V12.06,2013-08-12 23:00:00,
2013-08-12 19:30:00,66.5,65.3,29.95,SW,223,0.0,0.0,96,0.76,,SCT080,-99.99,VWS V12.06,2013-08-12 23:30:00,
2013-08-12 20:00:00,67.6,66.7,29.97,South,191,0.0,3.0,97,0.56,,BKN050,-99.99,VWS V12.06,2013-08-13 00:00:00,
2013-08-12 20:30:00,68.0,66.8,29.96,West,281,3.0,3.0,96,0.12, -RA,-RA,-99.99,VWS V12.06,2013-08-13 00:30:00,
2013-08-12 21:00:00,67.6,66.1,29.97,North,11,3.0,3.0,95,0.07, +RA, +RA,-99.99,VWS V12.06,2013-08-13 01:00:00,
2013-08-12 21:30:00,65.3,64.1,29.96,NE,47,4.0,8.0,96,0.00, +RA, +RA,-99.99,VWS V12.06,2013-08-13 01:30:00,
2013-08-12 22:00:00,66.6,63.3,29.96,West,259,5.0,8.0,89,0.00,,OVC100,-99.99,VWS V12.06,2013-08-13 02:00:00,
2013-08-12 22:30:00,68.2,64.5,29.95,WSW,248,6.0,6.0,88,0.00,,OVC100,-99.99,VWS V12.06,2013-08-13 02:30:00,
2013-08-12 23:00:00,67.9,63.9,29.95,West,265,5.0,6.0,87,0.00, BR,,-99.99,VWS V12.06,2013-08-13 03:00:00,
2013-08-12 23:30:00,68.0,64.3,29.95,WSW,252,2.0,2.0,88,0.00, BR,,-99.99,VWS V12.06,2013-08-13 03:30:00,